sensor_id;sensor_type;location;lat;lon;timestamp;P1;durP1;ratioP1;P2;durP2;ratioP2
79670;SDS011;69137;50.878;8.050;2024-03-25T00:00:15;15.00;;;4.63;;
79670;SDS011;69137;50.878;8.050;2024-03-25T00:02:41;9.18;;;3.33;;
79670;SDS011;69137;50.878;8.050;2024-03-25T00:05:07;9.93;;;3.33;;
79670;SDS011;69137;50.878;8.050;2024-03-25T00:07:34;11.07;;;3.80;;
79670;SDS011;69137;50.878;8.050;2024-03-25T00:10:01;26.35;;;5.50;;
79670;SDS011;69137;50.878;8.050;2024-03-25T00:12:27;11.52;;;4.60;;
79670;SDS011;69137;50.878;8.050;2024-03-25T00:14:52;7.77;;;3.70;;
79670;SDS011;69137;50.878;8.050;2024-03-25T00:17:17;11.40;;;4.80;;
79670;SDS011;69137;50.878;8.050;2024-03-25T00:19:44;9.82;;;4.22;;
79670;SDS011;69137;50.878;8.050;2024-03-25T00:22:15;10.95;;;3.92;;
79670;SDS011;69137;50.878;8.050;2024-03-25T00:24:40;8.80;;;3.90;;
79670;SDS011;69137;50.878;8.050;2024-03-25T00:27:06;8.00;;;3.88;;
79670;SDS011;69137;50.878;8.050;2024-03-25T00:29:31;9.17;;;5.03;;
79670;SDS011;69137;50.878;8.050;2024-03-25T00:31:56;13.47;;;4.40;;
79670;SDS011;69137;50.878;8.050;2024-03-25T00:34:21;9.20;;;4.00;;
79670;SDS011;69137;50.878;8.050;2024-03-25T00:36:47;14.30;;;4.20;;
79670;SDS011;69137;50.878;8.050;2024-03-25T00:39:13;17.80;;;4.70;;
79670;SDS011;69137;50.878;8.050;2024-03-25T00:41:38;11.05;;;4.38;;
79670;SDS011;69137;50.878;8.050;2024-03-25T00:44:03;11.50;;;4.93;;
79670;SDS011;69137;50.878;8.050;2024-03-25T00:46:29;9.10;;;4.47;;
79670;SDS011;69137;50.878;8.050;2024-03-25T00:48:54;13.77;;;5.03;;
79670;SDS011;69137;50.878;8.050;2024-03-25T00:51:19;11.70;;;5.20;;
79670;SDS011;69137;50.878;8.050;2024-03-25T00:53:45;9.13;;;4.35;;
79670;SDS011;69137;50.878;8.050;2024-03-25T00:56:10;11.83;;;3.83;;
79670;SDS011;69137;50.878;8.050;2024-03-25T00:58:35;8.83;;;3.67;;
79670;SDS011;69137;50.878;8.050;2024-03-25T01:01:01;15.80;;;4.33;;
79670;SDS011;69137;50.878;8.050;2024-03-25T01:03:26;16.57;;;4.33;;
79670;SDS011;69137;50.878;8.050;2024-03-25T01:05:51;19.35;;;4.65;;
79670;SDS011;69137;50.878;8.050;2024-03-25T01:08:17;8.88;;;3.03;;
79670;SDS011;69137;50.878;8.050;2024-03-25T01:10:42;13.00;;;3.50;;
79670;SDS011;69137;50.878;8.050;2024-03-25T01:13:07;6.63;;;2.73;;
79670;SDS011;69137;50.878;8.050;2024-03-25T01:15:33;14.93;;;3.73;;
79670;SDS011;69137;50.878;8.050;2024-03-25T01:17:58;11.90;;;4.03;;
79670;SDS011;69137;50.878;8.050;2024-03-25T01:20:23;8.57;;;3.23;;
79670;SDS011;69137;50.878;8.050;2024-03-25T01:22:48;10.57;;;3.70;;
79670;SDS011;69137;50.878;8.050;2024-03-25T01:25:14;19.58;;;6.38;;
79670;SDS011;69137;50.878;8.050;2024-03-25T01:27:39;9.23;;;4.07;;
79670;SDS011;69137;50.878;8.050;2024-03-25T01:30:05;14.37;;;3.67;;
79670;SDS011;69137;50.878;8.050;2024-03-25T01:32:31;13.15;;;3.17;;
79670;SDS011;69137;50.878;8.050;2024-03-25T01:34:56;14.85;;;4.20;;
79670;SDS011;69137;50.878;8.050;2024-03-25T01:37:22;8.57;;;3.27;;
79670;SDS011;69137;50.878;8.050;2024-03-25T01:39:47;17.87;;;5.30;;
79670;SDS011;69137;50.878;8.050;2024-03-25T01:42:13;15.17;;;3.17;;
79670;SDS011;69137;50.878;8.050;2024-03-25T01:44:38;15.88;;;3.67;;
79670;SDS011;69137;50.878;8.050;2024-03-25T01:47:04;15.27;;;4.07;;
79670;SDS011;69137;50.878;8.050;2024-03-25T01:49:29;13.90;;;4.68;;
79670;SDS011;69137;50.878;8.050;2024-03-25T01:51:54;11.60;;;3.33;;
79670;SDS011;69137;50.878;8.050;2024-03-25T01:54:21;6.05;;;3.03;;
79670;SDS011;69137;50.878;8.050;2024-03-25T01:56:46;15.67;;;4.37;;
79670;SDS011;69137;50.878;8.050;2024-03-25T01:59:12;8.73;;;3.75;;
79670;SDS011;69137;50.878;8.050;2024-03-25T02:01:40;8.15;;;2.95;;
79670;SDS011;69137;50.878;8.050;2024-03-25T02:04:06;9.95;;;3.42;;
79670;SDS011;69137;50.878;8.050;2024-03-25T02:06:32;21.67;;;4.90;;
79670;SDS011;69137;50.878;8.050;2024-03-25T02:08:58;19.10;;;4.25;;
79670;SDS011;69137;50.878;8.050;2024-03-25T02:11:23;7.78;;;3.13;;
79670;SDS011;69137;50.878;8.050;2024-03-25T02:13:50;12.95;;;4.55;;
79670;SDS011;69137;50.878;8.050;2024-03-25T02:16:16;11.57;;;3.70;;
79670;SDS011;69137;50.878;8.050;2024-03-25T02:18:41;10.00;;;3.23;;
79670;SDS011;69137;50.878;8.050;2024-03-25T02:21:06;14.60;;;3.20;;
79670;SDS011;69137;50.878;8.050;2024-03-25T02:23:32;12.73;;;3.50;;
79670;SDS011;69137;50.878;8.050;2024-03-25T02:25:59;7.82;;;3.28;;
79670;SDS011;69137;50.878;8.050;2024-03-25T02:28:24;6.23;;;3.60;;
79670;SDS011;69137;50.878;8.050;2024-03-25T02:30:50;5.63;;;2.67;;
79670;SDS011;69137;50.878;8.050;2024-03-25T02:33:15;8.07;;;3.00;;
79670;SDS011;69137;50.878;8.050;2024-03-25T02:35:40;9.40;;;3.08;;
79670;SDS011;69137;50.878;8.050;2024-03-25T02:38:07;11.20;;;2.72;;
79670;SDS011;69137;50.878;8.050;2024-03-25T02:40:34;12.95;;;2.83;;
79670;SDS011;69137;50.878;8.050;2024-03-25T02:43:00;7.63;;;2.75;;
79670;SDS011;69137;50.878;8.050;2024-03-25T02:45:25;4.93;;;2.38;;
79670;SDS011;69137;50.878;8.050;2024-03-25T02:47:50;4.43;;;2.53;;
79670;SDS011;69137;50.878;8.050;2024-03-25T02:50:15;6.70;;;2.10;;
79670;SDS011;69137;50.878;8.050;2024-03-25T02:52:41;6.65;;;2.60;;
79670;SDS011;69137;50.878;8.050;2024-03-25T02:55:06;7.93;;;2.67;;
79670;SDS011;69137;50.878;8.050;2024-03-25T02:57:32;6.68;;;1.90;;
79670;SDS011;69137;50.878;8.050;2024-03-25T02:59:57;6.20;;;2.13;;
79670;SDS011;69137;50.878;8.050;2024-03-25T03:02:22;5.17;;;2.43;;
79670;SDS011;69137;50.878;8.050;2024-03-25T03:04:47;4.10;;;2.30;;
79670;SDS011;69137;50.878;8.050;2024-03-25T03:07:13;8.97;;;2.53;;
79670;SDS011;69137;50.878;8.050;2024-03-25T03:09:38;6.60;;;2.17;;
79670;SDS011;69137;50.878;8.050;2024-03-25T03:12:03;7.43;;;3.27;;
79670;SDS011;69137;50.878;8.050;2024-03-25T03:14:29;4.28;;;2.30;;
79670;SDS011;69137;50.878;8.050;2024-03-25T03:16:54;5.63;;;2.77;;
79670;SDS011;69137;50.878;8.050;2024-03-25T03:21:48;7.93;;;2.87;;
79670;SDS011;69137;50.878;8.050;2024-03-25T03:24:13;8.70;;;3.10;;
79670;SDS011;69137;50.878;8.050;2024-03-25T03:26:38;7.20;;;3.03;;
79670;SDS011;69137;50.878;8.050;2024-03-25T03:29:03;4.00;;;2.57;;
79670;SDS011;69137;50.878;8.050;2024-03-25T03:31:29;8.63;;;4.50;;
79670;SDS011;69137;50.878;8.050;2024-03-25T03:33:54;8.38;;;3.22;;
79670;SDS011;69137;50.878;8.050;2024-03-25T03:36:21;13.00;;;4.00;;
79670;SDS011;69137;50.878;8.050;2024-03-25T03:38:47;8.95;;;3.42;;
79670;SDS011;69137;50.878;8.050;2024-03-25T03:41:14;11.30;;;3.78;;
79670;SDS011;69137;50.878;8.050;2024-03-25T03:43:40;10.67;;;4.97;;
79670;SDS011;69137;50.878;8.050;2024-03-25T03:46:05;8.33;;;3.63;;
79670;SDS011;69137;50.878;8.050;2024-03-25T03:48:31;11.32;;;4.15;;
79670;SDS011;69137;50.878;8.050;2024-03-25T03:50:56;13.13;;;4.57;;
79670;SDS011;69137;50.878;8.050;2024-03-25T03:53:22;14.25;;;4.85;;
79670;SDS011;69137;50.878;8.050;2024-03-25T03:55:57;11.95;;;4.30;;
79670;SDS011;69137;50.878;8.050;2024-03-25T03:58:23;11.60;;;4.28;;
79670;SDS011;69137;50.878;8.050;2024-03-25T04:00:49;11.00;;;5.72;;
79670;SDS011;69137;50.878;8.050;2024-03-25T04:03:15;11.85;;;4.22;;
79670;SDS011;69137;50.878;8.050;2024-03-25T04:05:41;15.63;;;5.43;;
79670;SDS011;69137;50.878;8.050;2024-03-25T04:08:06;14.45;;;4.93;;
79670;SDS011;69137;50.878;8.050;2024-03-25T04:10:33;19.45;;;6.05;;
79670;SDS011;69137;50.878;8.050;2024-03-25T04:12:58;14.95;;;4.90;;
79670;SDS011;69137;50.878;8.050;2024-03-25T04:15:24;14.73;;;4.83;;
79670;SDS011;69137;50.878;8.050;2024-03-25T04:17:49;16.70;;;5.30;;
79670;SDS011;69137;50.878;8.050;2024-03-25T04:20:15;19.20;;;5.47;;
79670;SDS011;69137;50.878;8.050;2024-03-25T04:22:44;14.77;;;5.03;;
79670;SDS011;69137;50.878;8.050;2024-03-25T04:25:10;18.00;;;5.78;;
79670;SDS011;69137;50.878;8.050;2024-03-25T04:27:37;16.65;;;5.00;;
79670;SDS011;69137;50.878;8.050;2024-03-25T04:30:06;13.38;;;4.80;;
79670;SDS011;69137;50.878;8.050;2024-03-25T04:32:33;11.32;;;4.78;;
79670;SDS011;69137;50.878;8.050;2024-03-25T04:34:59;13.52;;;4.97;;
79670;SDS011;69137;50.878;8.050;2024-03-25T04:37:24;14.65;;;5.15;;
79670;SDS011;69137;50.878;8.050;2024-03-25T04:39:50;10.33;;;5.00;;
79670;SDS011;69137;50.878;8.050;2024-03-25T04:42:15;11.57;;;5.10;;
79670;SDS011;69137;50.878;8.050;2024-03-25T04:44:40;12.30;;;5.13;;
79670;SDS011;69137;50.878;8.050;2024-03-25T04:47:05;19.10;;;7.27;;
79670;SDS011;69137;50.878;8.050;2024-03-25T04:49:31;13.97;;;5.70;;
79670;SDS011;69137;50.878;8.050;2024-03-25T04:51:56;16.27;;;5.93;;
79670;SDS011;69137;50.878;8.050;2024-03-25T04:54:21;19.90;;;6.17;;
79670;SDS011;69137;50.878;8.050;2024-03-25T04:56:46;19.20;;;6.03;;
79670;SDS011;69137;50.878;8.050;2024-03-25T04:59:12;17.35;;;5.00;;
79670;SDS011;69137;50.878;8.050;2024-03-25T05:01:38;11.57;;;5.28;;
79670;SDS011;69137;50.878;8.050;2024-03-25T05:04:03;9.23;;;5.23;;
79670;SDS011;69137;50.878;8.050;2024-03-25T05:06:28;13.87;;;5.77;;
79670;SDS011;69137;50.878;8.050;2024-03-25T05:08:53;16.93;;;5.80;;
79670;SDS011;69137;50.878;8.050;2024-03-25T05:11:19;13.77;;;5.90;;
79670;SDS011;69137;50.878;8.050;2024-03-25T05:13:44;19.27;;;6.57;;
79670;SDS011;69137;50.878;8.050;2024-03-25T05:16:10;22.02;;;5.93;;
79670;SDS011;69137;50.878;8.050;2024-03-25T05:18:36;16.17;;;5.65;;
79670;SDS011;69137;50.878;8.050;2024-03-25T05:21:01;15.18;;;5.38;;
79670;SDS011;69137;50.878;8.050;2024-03-25T05:23:26;18.40;;;7.20;;
79670;SDS011;69137;50.878;8.050;2024-03-25T05:25:52;20.67;;;5.93;;
79670;SDS011;69137;50.878;8.050;2024-03-25T05:28:17;19.57;;;6.70;;
79670;SDS011;69137;50.878;8.050;2024-03-25T05:30:42;15.23;;;5.50;;
79670;SDS011;69137;50.878;8.050;2024-03-25T05:33:07;18.90;;;5.87;;
79670;SDS011;69137;50.878;8.050;2024-03-25T05:35:33;14.20;;;5.35;;
79670;SDS011;69137;50.878;8.050;2024-03-25T05:38:01;18.15;;;5.32;;
79670;SDS011;69137;50.878;8.050;2024-03-25T05:40:28;19.42;;;5.90;;
79670;SDS011;69137;50.878;8.050;2024-03-25T05:42:54;28.83;;;7.00;;
79670;SDS011;69137;50.878;8.050;2024-03-25T05:45:19;14.53;;;5.87;;
79670;SDS011;69137;50.878;8.050;2024-03-25T05:47:44;14.43;;;5.97;;
79670;SDS011;69137;50.878;8.050;2024-03-25T05:50:09;14.17;;;5.63;;
79670;SDS011;69137;50.878;8.050;2024-03-25T05:52:35;13.00;;;6.32;;
79670;SDS011;69137;50.878;8.050;2024-03-25T05:55:01;14.98;;;5.90;;
79670;SDS011;69137;50.878;8.050;2024-03-25T05:57:26;18.92;;;6.22;;
79670;SDS011;69137;50.878;8.050;2024-03-25T05:59:51;14.03;;;6.23;;
79670;SDS011;69137;50.878;8.050;2024-03-25T06:02:17;16.73;;;7.03;;
79670;SDS011;69137;50.878;8.050;2024-03-25T06:04:42;18.67;;;6.07;;
79670;SDS011;69137;50.878;8.050;2024-03-25T06:07:07;23.13;;;7.40;;
79670;SDS011;69137;50.878;8.050;2024-03-25T06:09:33;18.00;;;5.88;;
79670;SDS011;69137;50.878;8.050;2024-03-25T06:11:58;11.65;;;6.10;;
79670;SDS011;69137;50.878;8.050;2024-03-25T06:14:24;12.48;;;6.68;;
79670;SDS011;69137;50.878;8.050;2024-03-25T06:16:49;16.03;;;5.87;;
79670;SDS011;69137;50.878;8.050;2024-03-25T06:19:14;13.90;;;6.13;;
79670;SDS011;69137;50.878;8.050;2024-03-25T06:21:40;18.60;;;5.50;;
79670;SDS011;69137;50.878;8.050;2024-03-25T06:24:07;17.67;;;6.43;;
79670;SDS011;69137;50.878;8.050;2024-03-25T06:26:32;17.65;;;5.57;;
79670;SDS011;69137;50.878;8.050;2024-03-25T06:28:59;18.15;;;5.38;;
79670;SDS011;69137;50.878;8.050;2024-03-25T06:31:24;20.57;;;5.73;;
79670;SDS011;69137;50.878;8.050;2024-03-25T06:34:08;20.17;;;6.22;;
79670;SDS011;69137;50.878;8.050;2024-03-25T06:36:42;21.23;;;5.53;;
79670;SDS011;69137;50.878;8.050;2024-03-25T06:39:08;16.73;;;5.00;;
79670;SDS011;69137;50.878;8.050;2024-03-25T06:41:34;17.02;;;5.78;;
79670;SDS011;69137;50.878;8.050;2024-03-25T06:43:59;17.73;;;5.45;;
79670;SDS011;69137;50.878;8.050;2024-03-25T06:46:24;18.80;;;5.03;;
79670;SDS011;69137;50.878;8.050;2024-03-25T06:48:50;13.23;;;5.18;;
79670;SDS011;69137;50.878;8.050;2024-03-25T06:51:17;14.90;;;5.88;;
79670;SDS011;69137;50.878;8.050;2024-03-25T06:53:43;18.48;;;6.13;;
79670;SDS011;69137;50.878;8.050;2024-03-25T06:56:08;16.52;;;4.53;;
79670;SDS011;69137;50.878;8.050;2024-03-25T06:58:34;13.77;;;5.40;;
79670;SDS011;69137;50.878;8.050;2024-03-25T07:01:06;19.27;;;6.60;;
79670;SDS011;69137;50.878;8.050;2024-03-25T07:03:32;14.82;;;5.00;;
79670;SDS011;69137;50.878;8.050;2024-03-25T07:05:58;8.85;;;4.78;;
79670;SDS011;69137;50.878;8.050;2024-03-25T07:08:25;21.40;;;5.05;;
79670;SDS011;69137;50.878;8.050;2024-03-25T07:10:53;11.63;;;5.30;;
79670;SDS011;69137;50.878;8.050;2024-03-25T07:13:19;21.05;;;6.28;;
79670;SDS011;69137;50.878;8.050;2024-03-25T07:15:44;11.93;;;4.70;;
79670;SDS011;69137;50.878;8.050;2024-03-25T07:18:10;23.75;;;5.57;;
79670;SDS011;69137;50.878;8.050;2024-03-25T07:20:37;15.77;;;4.80;;
79670;SDS011;69137;50.878;8.050;2024-03-25T07:23:04;12.00;;;4.78;;
79670;SDS011;69137;50.878;8.050;2024-03-25T07:25:29;13.73;;;5.30;;
79670;SDS011;69137;50.878;8.050;2024-03-25T07:27:54;12.55;;;4.30;;
79670;SDS011;69137;50.878;8.050;2024-03-25T07:30:20;15.20;;;4.13;;
79670;SDS011;69137;50.878;8.050;2024-03-25T07:32:47;18.52;;;5.30;;
79670;SDS011;69137;50.878;8.050;2024-03-25T07:35:12;16.40;;;4.90;;
79670;SDS011;69137;50.878;8.050;2024-03-25T07:37:41;17.88;;;4.45;;
79670;SDS011;69137;50.878;8.050;2024-03-25T07:40:06;17.02;;;4.75;;
79670;SDS011;69137;50.878;8.050;2024-03-25T07:42:33;16.27;;;4.45;;
79670;SDS011;69137;50.878;8.050;2024-03-25T07:44:59;19.80;;;5.13;;
79670;SDS011;69137;50.878;8.050;2024-03-25T07:47:25;11.52;;;4.53;;
79670;SDS011;69137;50.878;8.050;2024-03-25T07:49:51;12.43;;;5.35;;
79670;SDS011;69137;50.878;8.050;2024-03-25T07:52:16;15.70;;;4.60;;
79670;SDS011;69137;50.878;8.050;2024-03-25T07:54:44;16.02;;;4.03;;
79670;SDS011;69137;50.878;8.050;2024-03-25T07:57:15;11.37;;;4.07;;
79670;SDS011;69137;50.878;8.050;2024-03-25T07:59:40;8.07;;;3.50;;
79670;SDS011;69137;50.878;8.050;2024-03-25T08:02:05;11.30;;;3.23;;
79670;SDS011;69137;50.878;8.050;2024-03-25T08:04:31;10.25;;;4.10;;
79670;SDS011;69137;50.878;8.050;2024-03-25T08:06:56;10.43;;;3.47;;
79670;SDS011;69137;50.878;8.050;2024-03-25T08:09:27;15.02;;;3.88;;
79670;SDS011;69137;50.878;8.050;2024-03-25T08:12:02;9.80;;;3.20;;
79670;SDS011;69137;50.878;8.050;2024-03-25T08:14:28;9.35;;;3.15;;
79670;SDS011;69137;50.878;8.050;2024-03-25T08:16:53;10.93;;;3.95;;
79670;SDS011;69137;50.878;8.050;2024-03-25T08:19:19;10.70;;;3.77;;
79670;SDS011;69137;50.878;8.050;2024-03-25T08:21:44;11.93;;;4.68;;
79670;SDS011;69137;50.878;8.050;2024-03-25T08:24:18;14.02;;;4.30;;
79670;SDS011;69137;50.878;8.050;2024-03-25T08:26:44;14.02;;;5.15;;
79670;SDS011;69137;50.878;8.050;2024-03-25T08:29:09;11.02;;;3.53;;
79670;SDS011;69137;50.878;8.050;2024-03-25T08:31:34;10.30;;;4.27;;
79670;SDS011;69137;50.878;8.050;2024-03-25T08:34:00;11.17;;;4.03;;
79670;SDS011;69137;50.878;8.050;2024-03-25T08:36:25;13.67;;;4.60;;
79670;SDS011;69137;50.878;8.050;2024-03-25T08:38:50;5.73;;;3.37;;
79670;SDS011;69137;50.878;8.050;2024-03-25T08:41:16;9.80;;;3.20;;
79670;SDS011;69137;50.878;8.050;2024-03-25T08:43:41;8.30;;;2.90;;
79670;SDS011;69137;50.878;8.050;2024-03-25T08:46:09;12.10;;;3.22;;
79670;SDS011;69137;50.878;8.050;2024-03-25T08:48:40;8.98;;;2.85;;
79670;SDS011;69137;50.878;8.050;2024-03-25T08:51:06;14.73;;;3.03;;
79670;SDS011;69137;50.878;8.050;2024-03-25T08:53:32;13.40;;;2.80;;
79670;SDS011;69137;50.878;8.050;2024-03-25T08:55:58;6.57;;;2.33;;
79670;SDS011;69137;50.878;8.050;2024-03-25T08:58:23;10.85;;;3.40;;
79670;SDS011;69137;50.878;8.050;2024-03-25T09:00:48;10.55;;;2.65;;
79670;SDS011;69137;50.878;8.050;2024-03-25T09:03:14;7.37;;;2.63;;
79670;SDS011;69137;50.878;8.050;2024-03-25T09:05:39;17.25;;;4.10;;
79670;SDS011;69137;50.878;8.050;2024-03-25T09:08:08;9.15;;;2.58;;
79670;SDS011;69137;50.878;8.050;2024-03-25T09:10:36;10.75;;;2.88;;
79670;SDS011;69137;50.878;8.050;2024-03-25T09:13:20;10.85;;;2.30;;
79670;SDS011;69137;50.878;8.050;2024-03-25T09:15:45;8.57;;;2.23;;
79670;SDS011;69137;50.878;8.050;2024-03-25T09:18:11;5.10;;;2.03;;
79670;SDS011;69137;50.878;8.050;2024-03-25T09:20:36;7.73;;;2.23;;
79670;SDS011;69137;50.878;8.050;2024-03-25T09:23:01;11.07;;;2.57;;
79670;SDS011;69137;50.878;8.050;2024-03-25T09:25:27;9.55;;;2.65;;
79670;SDS011;69137;50.878;8.050;2024-03-25T09:27:52;11.83;;;2.57;;
79670;SDS011;69137;50.878;8.050;2024-03-25T09:30:17;7.67;;;2.70;;
79670;SDS011;69137;50.878;8.050;2024-03-25T09:35:11;6.97;;;1.80;;
79670;SDS011;69137;50.878;8.050;2024-03-25T09:37:37;10.15;;;2.97;;
79670;SDS011;69137;50.878;8.050;2024-03-25T09:40:06;7.28;;;2.10;;
79670;SDS011;69137;50.878;8.050;2024-03-25T09:45:15;7.30;;;2.40;;
79670;SDS011;69137;50.878;8.050;2024-03-25T09:47:51;7.50;;;2.35;;
79670;SDS011;69137;50.878;8.050;2024-03-25T09:50:17;6.03;;;2.08;;
79670;SDS011;69137;50.878;8.050;2024-03-25T09:52:49;9.27;;;2.22;;
79670;SDS011;69137;50.878;8.050;2024-03-25T09:55:14;6.50;;;2.35;;
79670;SDS011;69137;50.878;8.050;2024-03-25T09:57:41;7.25;;;2.22;;
79670;SDS011;69137;50.878;8.050;2024-03-25T10:00:08;5.35;;;1.85;;
79670;SDS011;69137;50.878;8.050;2024-03-25T10:02:37;10.63;;;2.35;;
79670;SDS011;69137;50.878;8.050;2024-03-25T10:05:04;11.82;;;2.40;;
79670;SDS011;69137;50.878;8.050;2024-03-25T10:07:30;5.95;;;2.70;;
79670;SDS011;69137;50.878;8.050;2024-03-25T10:09:56;5.38;;;2.20;;
79670;SDS011;69137;50.878;8.050;2024-03-25T10:12:21;7.37;;;2.00;;
79670;SDS011;69137;50.878;8.050;2024-03-25T10:14:46;8.82;;;2.92;;
79670;SDS011;69137;50.878;8.050;2024-03-25T10:17:12;8.55;;;2.10;;
79670;SDS011;69137;50.878;8.050;2024-03-25T10:19:38;10.35;;;2.60;;
79670;SDS011;69137;50.878;8.050;2024-03-25T10:22:07;12.40;;;3.00;;
79670;SDS011;69137;50.878;8.050;2024-03-25T10:24:37;9.07;;;2.22;;
79670;SDS011;69137;50.878;8.050;2024-03-25T10:27:21;6.35;;;1.52;;
79670;SDS011;69137;50.878;8.050;2024-03-25T10:29:48;12.73;;;2.28;;
79670;SDS011;69137;50.878;8.050;2024-03-25T10:32:17;6.65;;;2.10;;
79670;SDS011;69137;50.878;8.050;2024-03-25T10:34:42;7.97;;;2.20;;
79670;SDS011;69137;50.878;8.050;2024-03-25T10:37:08;9.13;;;2.27;;
79670;SDS011;69137;50.878;8.050;2024-03-25T10:39:37;7.40;;;2.05;;
79670;SDS011;69137;50.878;8.050;2024-03-25T10:42:04;6.95;;;2.45;;
79670;SDS011;69137;50.878;8.050;2024-03-25T10:44:30;7.30;;;2.03;;
79670;SDS011;69137;50.878;8.050;2024-03-25T10:47:01;8.10;;;2.53;;
79670;SDS011;69137;50.878;8.050;2024-03-25T10:52:15;6.15;;;1.70;;
79670;SDS011;69137;50.878;8.050;2024-03-25T10:54:42;4.40;;;1.90;;
79670;SDS011;69137;50.878;8.050;2024-03-25T10:57:08;4.93;;;1.42;;
79670;SDS011;69137;50.878;8.050;2024-03-25T10:59:35;5.35;;;2.22;;
79670;SDS011;69137;50.878;8.050;2024-03-25T11:02:04;2.70;;;1.52;;
79670;SDS011;69137;50.878;8.050;2024-03-25T11:04:30;9.30;;;2.33;;
79670;SDS011;69137;50.878;8.050;2024-03-25T11:07:06;5.82;;;1.50;;
79670;SDS011;69137;50.878;8.050;2024-03-25T11:09:35;6.22;;;2.17;;
79670;SDS011;69137;50.878;8.050;2024-03-25T11:12:01;5.40;;;1.80;;
79670;SDS011;69137;50.878;8.050;2024-03-25T11:14:26;8.40;;;1.98;;
79670;SDS011;69137;50.878;8.050;2024-03-25T11:16:53;10.70;;;2.45;;
79670;SDS011;69137;50.878;8.050;2024-03-25T11:19:18;9.68;;;1.88;;
79670;SDS011;69137;50.878;8.050;2024-03-25T11:21:45;12.23;;;3.50;;
79670;SDS011;69137;50.878;8.050;2024-03-25T11:24:11;4.43;;;2.13;;
79670;SDS011;69137;50.878;8.050;2024-03-25T11:26:40;3.40;;;1.77;;
79670;SDS011;69137;50.878;8.050;2024-03-25T11:29:08;5.47;;;2.10;;
79670;SDS011;69137;50.878;8.050;2024-03-25T11:31:33;6.50;;;1.87;;
79670;SDS011;69137;50.878;8.050;2024-03-25T11:34:05;3.45;;;1.60;;
79670;SDS011;69137;50.878;8.050;2024-03-25T11:36:33;6.22;;;2.20;;
79670;SDS011;69137;50.878;8.050;2024-03-25T11:39:05;9.55;;;2.67;;
79670;SDS011;69137;50.878;8.050;2024-03-25T11:41:34;6.35;;;1.67;;
79670;SDS011;69137;50.878;8.050;2024-03-25T11:44:03;6.90;;;1.75;;
79670;SDS011;69137;50.878;8.050;2024-03-25T11:46:29;5.30;;;3.25;;
79670;SDS011;69137;50.878;8.050;2024-03-25T11:48:55;7.70;;;2.47;;
79670;SDS011;69137;50.878;8.050;2024-03-25T11:51:21;6.73;;;1.73;;
79670;SDS011;69137;50.878;8.050;2024-03-25T11:53:46;4.03;;;2.08;;
79670;SDS011;69137;50.878;8.050;2024-03-25T11:56:12;8.52;;;1.63;;
79670;SDS011;69137;50.878;8.050;2024-03-25T11:58:38;4.47;;;1.52;;
79670;SDS011;69137;50.878;8.050;2024-03-25T12:01:04;3.80;;;1.67;;
79670;SDS011;69137;50.878;8.050;2024-03-25T12:03:29;7.13;;;1.40;;
79670;SDS011;69137;50.878;8.050;2024-03-25T12:05:55;3.63;;;1.50;;
79670;SDS011;69137;50.878;8.050;2024-03-25T12:08:21;12.85;;;1.73;;
79670;SDS011;69137;50.878;8.050;2024-03-25T12:10:50;10.02;;;2.13;;
79670;SDS011;69137;50.878;8.050;2024-03-25T12:13:35;4.30;;;1.92;;
79670;SDS011;69137;50.878;8.050;2024-03-25T12:16:05;7.28;;;1.85;;
79670;SDS011;69137;50.878;8.050;2024-03-25T12:18:32;6.57;;;2.03;;
79670;SDS011;69137;50.878;8.050;2024-03-25T12:20:58;6.15;;;1.75;;
79670;SDS011;69137;50.878;8.050;2024-03-25T12:23:28;6.13;;;1.97;;
79670;SDS011;69137;50.878;8.050;2024-03-25T12:25:54;9.32;;;2.00;;
79670;SDS011;69137;50.878;8.050;2024-03-25T12:28:19;3.93;;;1.87;;
79670;SDS011;69137;50.878;8.050;2024-03-25T12:30:51;6.55;;;1.75;;
79670;SDS011;69137;50.878;8.050;2024-03-25T12:33:17;3.00;;;1.45;;
79670;SDS011;69137;50.878;8.050;2024-03-25T12:35:46;4.20;;;1.47;;
79670;SDS011;69137;50.878;8.050;2024-03-25T12:41:08;7.65;;;1.58;;
79670;SDS011;69137;50.878;8.050;2024-03-25T12:43:42;4.18;;;1.23;;
79670;SDS011;69137;50.878;8.050;2024-03-25T12:46:08;7.80;;;2.22;;
79670;SDS011;69137;50.878;8.050;2024-03-25T12:48:34;7.28;;;1.52;;
79670;SDS011;69137;50.878;8.050;2024-03-25T12:51:00;3.95;;;1.63;;
79670;SDS011;69137;50.878;8.050;2024-03-25T12:53:26;9.50;;;2.00;;
79670;SDS011;69137;50.878;8.050;2024-03-25T12:55:52;6.55;;;1.48;;
79670;SDS011;69137;50.878;8.050;2024-03-25T12:58:17;4.75;;;1.27;;
79670;SDS011;69137;50.878;8.050;2024-03-25T13:00:42;5.60;;;1.20;;
79670;SDS011;69137;50.878;8.050;2024-03-25T13:03:08;5.18;;;1.33;;
79670;SDS011;69137;50.878;8.050;2024-03-25T13:05:34;5.93;;;1.42;;
79670;SDS011;69137;50.878;8.050;2024-03-25T13:08:00;4.35;;;1.10;;
79670;SDS011;69137;50.878;8.050;2024-03-25T13:10:25;4.32;;;1.30;;
79670;SDS011;69137;50.878;8.050;2024-03-25T13:12:51;5.60;;;1.35;;
79670;SDS011;69137;50.878;8.050;2024-03-25T13:15:17;6.60;;;1.50;;
79670;SDS011;69137;50.878;8.050;2024-03-25T13:17:42;6.77;;;2.13;;
79670;SDS011;69137;50.878;8.050;2024-03-25T13:20:07;5.03;;;1.47;;
79670;SDS011;69137;50.878;8.050;2024-03-25T13:22:33;3.75;;;1.52;;
79670;SDS011;69137;50.878;8.050;2024-03-25T13:24:59;2.73;;;1.30;;
79670;SDS011;69137;50.878;8.050;2024-03-25T13:27:27;4.60;;;2.38;;
79670;SDS011;69137;50.878;8.050;2024-03-25T13:29:52;2.97;;;1.40;;
79670;SDS011;69137;50.878;8.050;2024-03-25T13:32:20;6.50;;;1.67;;
79670;SDS011;69137;50.878;8.050;2024-03-25T13:34:46;2.35;;;1.40;;
79670;SDS011;69137;50.878;8.050;2024-03-25T13:37:12;4.43;;;1.63;;
79670;SDS011;69137;50.878;8.050;2024-03-25T13:39:37;2.00;;;1.13;;
79670;SDS011;69137;50.878;8.050;2024-03-25T13:42:03;7.05;;;1.85;;
79670;SDS011;69137;50.878;8.050;2024-03-25T13:44:28;9.80;;;1.85;;
79670;SDS011;69137;50.878;8.050;2024-03-25T13:46:54;4.17;;;1.33;;
79670;SDS011;69137;50.878;8.050;2024-03-25T13:49:19;5.53;;;1.45;;
79670;SDS011;69137;50.878;8.050;2024-03-25T13:51:45;3.13;;;1.23;;
79670;SDS011;69137;50.878;8.050;2024-03-25T13:54:11;6.05;;;1.55;;
79670;SDS011;69137;50.878;8.050;2024-03-25T13:56:37;3.00;;;1.20;;
79670;SDS011;69137;50.878;8.050;2024-03-25T13:59:02;4.03;;;1.17;;
79670;SDS011;69137;50.878;8.050;2024-03-25T14:01:28;5.18;;;1.33;;
79670;SDS011;69137;50.878;8.050;2024-03-25T14:03:53;5.97;;;1.97;;
79670;SDS011;69137;50.878;8.050;2024-03-25T14:06:18;1.90;;;1.07;;
79670;SDS011;69137;50.878;8.050;2024-03-25T14:08:44;4.20;;;1.47;;
79670;SDS011;69137;50.878;8.050;2024-03-25T14:11:10;4.32;;;1.33;;
79670;SDS011;69137;50.878;8.050;2024-03-25T14:13:35;6.00;;;1.37;;
79670;SDS011;69137;50.878;8.050;2024-03-25T14:16:01;5.13;;;1.63;;
79670;SDS011;69137;50.878;8.050;2024-03-25T14:18:26;2.75;;;0.95;;
79670;SDS011;69137;50.878;8.050;2024-03-25T14:20:52;5.10;;;1.35;;
79670;SDS011;69137;50.878;8.050;2024-03-25T14:23:17;4.07;;;1.60;;
79670;SDS011;69137;50.878;8.050;2024-03-25T14:25:43;7.07;;;1.60;;
79670;SDS011;69137;50.878;8.050;2024-03-25T14:28:08;3.50;;;1.30;;
79670;SDS011;69137;50.878;8.050;2024-03-25T14:30:33;5.97;;;1.50;;
79670;SDS011;69137;50.878;8.050;2024-03-25T14:32:58;5.67;;;1.20;;
79670;SDS011;69137;50.878;8.050;2024-03-25T14:35:24;5.15;;;1.60;;
79670;SDS011;69137;50.878;8.050;2024-03-25T14:37:49;4.30;;;1.45;;
79670;SDS011;69137;50.878;8.050;2024-03-25T14:40:15;2.80;;;1.40;;
79670;SDS011;69137;50.878;8.050;2024-03-25T14:42:42;3.58;;;1.33;;
79670;SDS011;69137;50.878;8.050;2024-03-25T14:45:07;4.00;;;1.30;;
79670;SDS011;69137;50.878;8.050;2024-03-25T14:47:33;4.05;;;1.20;;